Charles City, IA (50616)

10:37 AM CDT on September 23, 2014 (GMT -0500)
Charles City Municipal | Change Station
CLOSE
Current Station
Airport
Location: Charles City,
Elevation: 1125 ft
Nearby Weather Stations

Elev 1125 ft 43.07 °N, 92.61 °W | Updated 22 minutes ago

Clear
Clear
63 °F
Feels Like 63 °F
N
6
Wind Variable Wind from Variable

Today
High -- | Low -- °F
--% Chance of Precip.
Yesterday
High -- | Low -- °F
Precip. -- in
6:59 AM 7:06 PM
Waning Crescent, 0% visible
Pressure 30.29 in
Visibility 10.0 miles
Clouds Clear
Dew Point 52 °F
Humidity 68%
Rainfall 0.00 in
Snow Depth Not available.
UV 4 out of 12
Pollen 3.90 out of 12
Air Quality Not available.
Flu Activity Not available.
METAR KCCY 231515Z AUTO VRB05KT 10SM CLR 17/11 A3029 RMK AO2

More Conditions Fewer Conditions

Pressure 30.29 in
Visibility 10.0 miles
Clouds Clear
Dew Point 52 °F
Humidity 68%
Rainfall 0.00 in
Snow Depth Not available.
UV 4 out of 12
Pollen 3.90 out of 12
Air Quality Not available.
Flu Activity Not available.
METAR KCCY 231515Z AUTO VRB05KT 10SM CLR 17/11 A3029 RMK AO2

More Conditions Fewer Conditions

10-Day Weather Forecast

Almanac

Astronomy

Sep. 23, 2014 Rise Set
Actual Time 6:59 AM CDT 7:06 PM CDT
Civil Twilight 6:30 AM CDT 7:34 PM CDT
Nautical Twilight 5:57 AM CDT 8:07 PM CDT
Astronomical Twilight 5:23 AM CDT 8:41 PM CDT
Moon 6:23 AM CDT 6:44 PM CDT
Length of Visible Light 13h 03m
Length of Day
12h 07m
Tomorrow will be 2m 54s shorter.
Waning Crescent, 0% of the Moon is Illuminated
Today
Waning Crescent
Sep 24
New
Oct 1
First Quarter
Oct 8
Full
Oct 15
Last Quarter

Today's Extremes

State Highs State Lows

Community

WunderPhotos

Upload Photos

1,755,725 photos uploaded!

WunderBlogs® & News

Nearby

Snow Depth

Station Depth Elevation
No new snow has been reported.

Earthquake Activity

City Distance Mag. Time & Date
No recent earthquake activity has been reported nearby.
Minimum magnitude displayed is 2.5.

Coastal Water Temperatures

Place Temperature
No Stations Reporting

Nearby Weather Stations